sensor_id;sensor_type;location;lat;lon;timestamp;pressure;altitude;pressure_sealevel;temperature;humidity
16100;BME280;8154;50.830;12.082;2023-01-26T00:01:25;100078.53;;;19.78;38.92
16100;BME280;8154;50.830;12.082;2023-01-26T00:03:56;100074.22;;;19.77;38.83
16100;BME280;8154;50.830;12.082;2023-01-26T00:06:23;100076.69;;;19.79;38.64
16100;BME280;8154;50.830;12.082;2023-01-26T00:08:51;100069.59;;;19.79;38.59
16100;BME280;8154;50.830;12.082;2023-01-26T00:11:20;100067.78;;;19.80;38.73
16100;BME280;8154;50.830;12.082;2023-01-26T00:13:49;100070.28;;;19.81;38.62
16100;BME280;8154;50.830;12.082;2023-01-26T02:16:55;99985.63;;;20.04;37.53
16100;BME280;8154;50.830;12.082;2023-01-26T02:28:12;99970.09;;;20.09;37.49
16100;BME280;8154;50.830;12.082;2023-01-26T02:30:59;99970.25;;;20.07;37.36
16100;BME280;8154;50.830;12.082;2023-01-26T02:33:45;99968.25;;;20.09;37.35
16100;BME280;8154;50.830;12.082;2023-01-26T02:36:32;99957.81;;;20.08;37.30
16100;BME280;8154;50.830;12.082;2023-01-26T02:39:45;99948.69;;;20.10;37.31
16100;BME280;8154;50.830;12.082;2023-01-26T02:42:33;99948.00;;;20.08;37.30
16100;BME280;8154;50.830;12.082;2023-01-26T02:45:26;99939.25;;;20.08;37.22
16100;BME280;8154;50.830;12.082;2023-01-26T02:48:13;99945.88;;;20.12;37.35
16100;BME280;8154;50.830;12.082;2023-01-26T02:51:19;99939.72;;;20.11;37.37
16100;BME280;8154;50.830;12.082;2023-01-26T02:54:05;99938.75;;;20.12;37.27
16100;BME280;8154;50.830;12.082;2023-01-26T02:56:32;99934.41;;;20.11;37.37
16100;BME280;8154;50.830;12.082;2023-01-26T02:58:58;99934.41;;;20.11;37.23
16100;BME280;8154;50.830;12.082;2023-01-26T03:01:24;99931.59;;;20.13;37.22
16100;BME280;8154;50.830;12.082;2023-01-26T03:03:51;99931.47;;;20.14;37.33
16100;BME280;8154;50.830;12.082;2023-01-26T03:06:18;99925.34;;;20.14;37.17
16100;BME280;8154;50.830;12.082;2023-01-26T03:08:44;99926.28;;;20.13;37.21
16100;BME280;8154;50.830;12.082;2023-01-26T03:11:12;99924.34;;;20.15;37.17
16100;BME280;8154;50.830;12.082;2023-01-26T03:13:38;99930.50;;;20.15;37.25
16100;BME280;8154;50.830;12.082;2023-01-26T04:18:05;99885.91;;;20.19;36.78
16100;BME280;8154;50.830;12.082;2023-01-26T04:20:50;99895.50;;;20.20;37.02
16100;BME280;8154;50.830;12.082;2023-01-26T04:23:34;99895.50;;;20.20;36.84
16100;BME280;8154;50.830;12.082;2023-01-26T04:26:01;99902.63;;;20.19;36.96
16100;BME280;8154;50.830;12.082;2023-01-26T04:28:27;99900.66;;;20.21;36.82
16100;BME280;8154;50.830;12.082;2023-01-26T04:30:52;99895.19;;;20.23;36.80
16100;BME280;8154;50.830;12.082;2023-01-26T04:33:19;99894.16;;;20.24;36.93
16100;BME280;8154;50.830;12.082;2023-01-26T04:35:45;99902.13;;;20.24;36.83
16100;BME280;8154;50.830;12.082;2023-01-26T04:38:10;99894.34;;;20.22;36.85
16100;BME280;8154;50.830;12.082;2023-01-26T04:40:37;99894.34;;;20.22;36.94
16100;BME280;8154;50.830;12.082;2023-01-26T04:43:03;99890.19;;;20.20;36.96
16100;BME280;8154;50.830;12.082;2023-01-26T04:45:28;99888.22;;;20.22;36.89
16100;BME280;8154;50.830;12.082;2023-01-26T04:47:55;99893.53;;;20.22;36.73
16100;BME280;8154;50.830;12.082;2023-01-26T04:50:20;99883.56;;;20.24;36.86
16100;BME280;8154;50.830;12.082;2023-01-26T04:52:46;99883.56;;;20.24;36.72
16100;BME280;8154;50.830;12.082;2023-01-26T04:55:13;99881.91;;;20.23;36.76
16100;BME280;8154;50.830;12.082;2023-01-26T04:57:39;99884.56;;;20.23;36.75
16100;BME280;8154;50.830;12.082;2023-01-26T05:00:05;99892.53;;;20.23;36.64
16100;BME280;8154;50.830;12.082;2023-01-26T05:02:32;99885.41;;;20.23;36.88
16100;BME280;8154;50.830;12.082;2023-01-26T05:04:57;99884.22;;;20.26;36.69
16100;BME280;8154;50.830;12.082;2023-01-26T05:07:23;99884.22;;;20.26;36.61
16100;BME280;8154;50.830;12.082;2023-01-26T05:09:49;99878.91;;;20.26;36.77
16100;BME280;8154;50.830;12.082;2023-01-26T05:12:15;99879.75;;;20.26;36.60
16100;BME280;8154;50.830;12.082;2023-01-26T05:15:00;99891.19;;;20.27;36.50
16100;BME280;8154;50.830;12.082;2023-01-26T10:21:37;99908.31;;;20.72;35.60
16100;BME280;8154;50.830;12.082;2023-01-26T10:24:04;99902.66;;;20.67;35.68
16100;BME280;8154;50.830;12.082;2023-01-26T10:26:32;99902.00;;;20.73;35.66
16100;BME280;8154;50.830;12.082;2023-01-26T10:28:59;99893.06;;;20.74;35.62
16100;BME280;8154;50.830;12.082;2023-01-26T10:31:32;99892.03;;;20.75;35.52
16100;BME280;8154;50.830;12.082;2023-01-26T10:34:14;99891.19;;;20.75;35.66
16100;BME280;8154;50.830;12.082;2023-01-26T10:36:45;99891.19;;;20.75;35.55
16100;BME280;8154;50.830;12.082;2023-01-26T10:39:14;99891.88;;;20.77;35.55
16100;BME280;8154;50.830;12.082;2023-01-26T10:41:56;99890.06;;;20.77;35.57
16100;BME280;8154;50.830;12.082;2023-01-26T10:44:41;99881.25;;;20.77;35.53
16100;BME280;8154;50.830;12.082;2023-01-26T10:47:16;99883.91;;;20.77;35.62
16100;BME280;8154;50.830;12.082;2023-01-26T10:49:43;99880.25;;;20.78;35.61
16100;BME280;8154;50.830;12.082;2023-01-26T10:52:20;99875.94;;;20.77;35.53
16100;BME280;8154;50.830;12.082;2023-01-26T10:55:19;99880.25;;;20.78;35.50
16100;BME280;8154;50.830;12.082;2023-01-26T10:57:49;99881.09;;;20.78;35.45
16100;BME280;8154;50.830;12.082;2023-01-26T11:02:53;99886.22;;;20.80;35.59
16100;BME280;8154;50.830;12.082;2023-01-26T11:05:24;99887.88;;;20.81;35.61
16100;BME280;8154;50.830;12.082;2023-01-26T11:07:53;99878.09;;;20.81;35.51
16100;BME280;8154;50.830;12.082;2023-01-26T11:10:36;99878.09;;;20.81;35.64
16100;BME280;8154;50.830;12.082;2023-01-26T11:15:44;99875.44;;;20.81;35.53
16100;BME280;8154;50.830;12.082;2023-01-26T12:22:29;99827.94;;;20.86;35.42
16100;BME280;8154;50.830;12.082;2023-01-26T12:25:25;99827.78;;;20.88;35.36
16100;BME280;8154;50.830;12.082;2023-01-26T12:28:13;99814.31;;;20.89;35.26
16100;BME280;8154;50.830;12.082;2023-01-26T12:33:09;99815.28;;;20.88;35.31
16100;BME280;8154;50.830;12.082;2023-01-26T12:38:59;99809.81;;;20.90;35.26
16100;BME280;8154;50.830;12.082;2023-01-26T12:44:40;99804.16;;;21.01;35.16
16100;BME280;8154;50.830;12.082;2023-01-26T12:52:41;99800.28;;;20.41;36.15
16100;BME280;8154;50.830;12.082;2023-01-26T12:55:31;99797.28;;;20.36;36.40
16100;BME280;8154;50.830;12.082;2023-01-26T12:58:09;99795.31;;;20.46;36.44
16100;BME280;8154;50.830;12.082;2023-01-26T13:00:38;99798.28;;;20.51;36.41
16100;BME280;8154;50.830;12.082;2023-01-26T13:03:19;99793.94;;;20.66;36.32
16100;BME280;8154;50.830;12.082;2023-01-26T13:06:00;99787.59;;;20.75;36.14
16100;BME280;8154;50.830;12.082;2023-01-26T13:10:58;99781.44;;;20.82;35.90
16100;BME280;8154;50.830;12.082;2023-01-26T13:13:30;99781.28;;;20.84;35.69
16100;BME280;8154;50.830;12.082;2023-01-26T13:26:45;99792.41;;;20.87;35.66
16100;BME280;8154;50.830;12.082;2023-01-26T13:31:46;99796.53;;;20.90;35.62
16100;BME280;8154;50.830;12.082;2023-01-26T13:34:15;99793.06;;;20.89;35.64
16100;BME280;8154;50.830;12.082;2023-01-26T13:36:44;99798.56;;;20.88;35.59
16100;BME280;8154;50.830;12.082;2023-01-26T13:39:27;99802.69;;;20.98;35.42
16100;BME280;8154;50.830;12.082;2023-01-26T13:41:54;99803.81;;;21.04;35.38
16100;BME280;8154;50.830;12.082;2023-01-26T13:44:24;99800.34;;;21.03;35.22
16100;BME280;8154;50.830;12.082;2023-01-26T13:49:44;99801.06;;;20.97;35.32
16100;BME280;8154;50.830;12.082;2023-01-26T13:52:17;99801.22;;;20.96;35.44
16100;BME280;8154;50.830;12.082;2023-01-26T13:54:45;99803.88;;;20.96;35.43
16100;BME280;8154;50.830;12.082;2023-01-26T13:57:23;99803.88;;;20.96;35.50
16100;BME280;8154;50.830;12.082;2023-01-26T13:59:52;99802.34;;;20.93;35.41
16100;BME280;8154;50.830;12.082;2023-01-26T14:02:24;99803.03;;;20.95;35.43
16100;BME280;8154;50.830;12.082;2023-01-26T14:04:53;99801.22;;;20.96;35.33
16100;BME280;8154;50.830;12.082;2023-01-26T14:07:25;99798.56;;;20.96;35.53
16100;BME280;8154;50.830;12.082;2023-01-26T14:09:53;99805.84;;;20.94;35.38
16100;BME280;8154;50.830;12.082;2023-01-26T14:12:22;99818.09;;;20.95;35.36
16100;BME280;8154;50.830;12.082;2023-01-26T14:14:55;99799.69;;;20.93;35.44
16100;BME280;8154;50.830;12.082;2023-01-26T15:23:50;99801.22;;;20.96;35.29
16100;BME280;8154;50.830;12.082;2023-01-26T15:26:33;99815.16;;;20.98;35.46
16100;BME280;8154;50.830;12.082;2023-01-26T15:29:23;99814.50;;;20.96;35.25
16100;BME280;8154;50.830;12.082;2023-01-26T15:31:52;99817.16;;;20.96;35.19
16100;BME280;8154;50.830;12.082;2023-01-26T15:36:58;99809.81;;;20.98;35.20
16100;BME280;8154;50.830;12.082;2023-01-26T15:39:25;99810.84;;;20.97;35.31
16100;BME280;8154;50.830;12.082;2023-01-26T15:42:14;99810.84;;;20.97;35.25
16100;BME280;8154;50.830;12.082;2023-01-26T15:44:44;99809.66;;;20.99;35.12
16100;BME280;8154;50.830;12.082;2023-01-26T15:47:10;99816.81;;;20.99;35.25
16100;BME280;8154;50.830;12.082;2023-01-26T15:49:37;99822.31;;;20.97;35.30
16100;BME280;8154;50.830;12.082;2023-01-26T15:52:18;99817.81;;;20.98;35.27
16100;BME280;8154;50.830;12.082;2023-01-26T15:54:45;99833.75;;;20.98;35.22
16100;BME280;8154;50.830;12.082;2023-01-26T15:57:12;99827.44;;;20.99;35.23
16100;BME280;8154;50.830;12.082;2023-01-26T15:59:39;99828.44;;;20.98;35.12
16100;BME280;8154;50.830;12.082;2023-01-26T16:02:17;99831.09;;;20.98;35.14
16100;BME280;8154;50.830;12.082;2023-01-26T16:04:43;99830.28;;;20.97;35.14
16100;BME280;8154;50.830;12.082;2023-01-26T16:07:12;99824.78;;;20.99;35.04
16100;BME280;8154;50.830;12.082;2023-01-26T16:09:39;99824.78;;;20.99;35.25
16100;BME280;8154;50.830;12.082;2023-01-26T16:12:16;99819.47;;;20.99;35.13
16100;BME280;8154;50.830;12.082;2023-01-26T16:14:43;99817.81;;;20.98;35.17
16100;BME280;8154;50.830;12.082;2023-01-26T16:17:13;99815.16;;;20.98;35.07
16100;BME280;8154;50.830;12.082;2023-01-26T16:19:41;99819.66;;;20.97;35.20
16100;BME280;8154;50.830;12.082;2023-01-26T18:21:45;99858.41;;;21.23;34.64
16100;BME280;8154;50.830;12.082;2023-01-26T18:24:13;99851.28;;;21.23;34.55
16100;BME280;8154;50.830;12.082;2023-01-26T18:26:39;99850.78;;;21.19;34.64
16100;BME280;8154;50.830;12.082;2023-01-26T18:29:07;99847.66;;;21.16;34.74
16100;BME280;8154;50.830;12.082;2023-01-26T18:31:37;99848.00;;;21.13;34.61
16100;BME280;8154;50.830;12.082;2023-01-26T18:34:05;99844.69;;;21.11;34.87
16100;BME280;8154;50.830;12.082;2023-01-26T18:36:32;99853.31;;;21.13;34.76
16100;BME280;8154;50.830;12.082;2023-01-26T18:39:01;99851.66;;;21.12;34.84
16100;BME280;8154;50.830;12.082;2023-01-26T18:41:28;99858.97;;;21.10;34.56
16100;BME280;8154;50.830;12.082;2023-01-26T18:43:57;99852.66;;;21.11;34.72
16100;BME280;8154;50.830;12.082;2023-01-26T18:46:24;99858.97;;;21.10;34.80
16100;BME280;8154;50.830;12.082;2023-01-26T18:48:52;99856.31;;;21.10;34.83
16100;BME280;8154;50.830;12.082;2023-01-26T18:51:19;99857.13;;;21.10;34.73
16100;BME280;8154;50.830;12.082;2023-01-26T18:53:47;99850.50;;;21.14;34.59
16100;BME280;8154;50.830;12.082;2023-01-26T18:56:15;99851.66;;;21.12;34.66
16100;BME280;8154;50.830;12.082;2023-01-26T18:58:42;99849.31;;;21.17;34.49
16100;BME280;8154;50.830;12.082;2023-01-26T19:01:11;99854.44;;;21.27;34.33
16100;BME280;8154;50.830;12.082;2023-01-26T19:03:39;99856.91;;;21.28;34.29
16100;BME280;8154;50.830;12.082;2023-01-26T19:06:14;99851.94;;;21.25;34.59
16100;BME280;8154;50.830;12.082;2023-01-26T19:08:44;99856.78;;;21.22;34.46
16100;BME280;8154;50.830;12.082;2023-01-26T19:11:10;99858.75;;;21.19;34.59
16100;BME280;8154;50.830;12.082;2023-01-26T19:13:36;99858.13;;;21.17;34.56
16100;BME280;8154;50.830;12.082;2023-01-26T19:16:07;99857.28;;;21.17;34.54
16100;BME280;8154;50.830;12.082;2023-01-26T19:18:33;99855.81;;;21.14;34.59
16100;BME280;8154;50.830;12.082;2023-01-26T19:21:01;99851.31;;;21.15;34.63
16100;BME280;8154;50.830;12.082;2023-01-26T19:23:28;99851.31;;;21.15;34.67
16100;BME280;8154;50.830;12.082;2023-01-26T19:25:55;99853.97;;;21.15;34.75
16100;BME280;8154;50.830;12.082;2023-01-26T19:28:20;99852.13;;;21.15;34.58
16100;BME280;8154;50.830;12.082;2023-01-26T19:30:47;99858.47;;;21.14;34.61
16100;BME280;8154;50.830;12.082;2023-01-26T19:33:13;99857.47;;;21.15;34.58
16100;BME280;8154;50.830;12.082;2023-01-26T19:35:54;99858.28;;;21.16;34.62
16100;BME280;8154;50.830;12.082;2023-01-26T19:38:21;99856.63;;;21.15;34.55
16100;BME280;8154;50.830;12.082;2023-01-26T19:40:49;99854.13;;;21.13;34.67
16100;BME280;8154;50.830;12.082;2023-01-26T19:43:16;99856.63;;;21.15;34.57
16100;BME280;8154;50.830;12.082;2023-01-26T19:45:52;99855.63;;;21.16;34.50
16100;BME280;8154;50.830;12.082;2023-01-26T19:48:21;99852.31;;;21.14;34.60
16100;BME280;8154;50.830;12.082;2023-01-26T19:53:32;99854.78;;;21.15;34.57
16100;BME280;8154;50.830;12.082;2023-01-26T19:56:04;99860.28;;;21.14;34.50
16100;BME280;8154;50.830;12.082;2023-01-26T19:58:30;99859.44;;;21.13;34.58
16100;BME280;8154;50.830;12.082;2023-01-26T20:01:00;99858.28;;;21.16;34.51
16100;BME280;8154;50.830;12.082;2023-01-26T20:03:26;99860.28;;;21.14;34.51
16100;BME280;8154;50.830;12.082;2023-01-26T20:05:55;99847.16;;;21.12;34.47
16100;BME280;8154;50.830;12.082;2023-01-26T20:08:20;99861.94;;;21.15;34.52
16100;BME280;8154;50.830;12.082;2023-01-26T20:10:47;99857.47;;;21.15;34.55
16100;BME280;8154;50.830;12.082;2023-01-26T20:13:13;99854.63;;;21.17;34.52
16100;BME280;8154;50.830;12.082;2023-01-26T20:15:39;99850.75;;;21.28;34.15
16100;BME280;8154;50.830;12.082;2023-01-26T20:18:05;99850.91;;;21.34;34.22
16100;BME280;8154;50.830;12.082;2023-01-26T20:20:32;99854.09;;;21.30;34.22
16100;BME280;8154;50.830;12.082;2023-01-26T22:22:52;99844.69;;;21.11;34.23
16100;BME280;8154;50.830;12.082;2023-01-26T22:25:18;99845.53;;;21.11;34.42
16100;BME280;8154;50.830;12.082;2023-01-26T22:27:45;99833.38;;;21.09;34.38
16100;BME280;8154;50.830;12.082;2023-01-26T22:30:11;99827.09;;;21.10;34.37
16100;BME280;8154;50.830;12.082;2023-01-26T22:32:37;99825.25;;;21.10;34.34
16100;BME280;8154;50.830;12.082;2023-01-26T22:35:03;99822.75;;;21.09;34.35
16100;BME280;8154;50.830;12.082;2023-01-26T22:37:29;99826.06;;;21.11;34.29
16100;BME280;8154;50.830;12.082;2023-01-26T22:39:55;99821.91;;;21.08;34.43
16100;BME280;8154;50.830;12.082;2023-01-26T22:42:21;99826.25;;;21.09;34.35
16100;BME280;8154;50.830;12.082;2023-01-26T22:44:47;99825.09;;;21.04;34.39
16100;BME280;8154;50.830;12.082;2023-01-26T22:47:13;99824.44;;;21.10;34.39
16100;BME280;8154;50.830;12.082;2023-01-26T22:49:39;99832.69;;;21.15;34.24
16100;BME280;8154;50.830;12.082;2023-01-26T22:52:05;99827.34;;;21.23;33.99
16100;BME280;8154;50.830;12.082;2023-01-26T22:54:31;99822.72;;;21.25;33.93
16100;BME280;8154;50.830;12.082;2023-01-26T22:56:57;99824.38;;;21.18;34.08
16100;BME280;8154;50.830;12.082;2023-01-26T22:59:23;99828.38;;;21.14;34.18
16100;BME280;8154;50.830;12.082;2023-01-26T23:01:49;99829.75;;;21.10;34.20
16100;BME280;8154;50.830;12.082;2023-01-26T23:04:15;99821.78;;;21.10;34.25
16100;BME280;8154;50.830;12.082;2023-01-26T23:06:42;99818.63;;;21.06;34.19
16100;BME280;8154;50.830;12.082;2023-01-26T23:09:08;99817.59;;;21.07;34.19
16100;BME280;8154;50.830;12.082;2023-01-26T23:11:34;99818.78;;;21.05;34.38
16100;BME280;8154;50.830;12.082;2023-01-26T23:14:00;99809.97;;;21.04;34.34
16100;BME280;8154;50.830;12.082;2023-01-26T23:16:27;99816.13;;;21.05;34.16
16100;BME280;8154;50.830;12.082;2023-01-26T23:18:55;99813.47;;;21.05;34.31
16100;BME280;8154;50.830;12.082;2023-01-26T23:21:22;99821.44;;;21.05;34.22
